sensor_id;sensor_type;location;lat;lon;timestamp;pressure;altitude;pressure_sealevel;temperature;humidity
5877;BME280;2964;42.144;24.730;2022-10-31T00:01:10;145354.59;;;15.22;63.38
5877;BME280;2964;42.144;24.730;2022-10-31T00:03:37;145340.72;;;15.17;63.03
5877;BME280;2964;42.144;24.730;2022-10-31T00:06:03;145441.56;;;15.58;61.45
5877;BME280;2964;42.144;24.730;2022-10-31T00:08:30;145460.47;;;15.66;61.10
5877;BME280;2964;42.144;24.730;2022-10-31T00:10:57;145526.13;;;15.92;59.77
5877;BME280;2964;42.144;24.730;2022-10-31T00:13:25;145481.97;;;15.74;60.45
5877;BME280;2964;42.144;24.730;2022-10-31T00:15:51;145516.06;;;15.88;59.78
5877;BME280;2964;42.144;24.730;2022-10-31T00:18:18;145531.19;;;15.94;59.79
5877;BME280;2964;42.144;24.730;2022-10-31T00:20:45;145551.34;;;16.02;59.06
5877;BME280;2964;42.144;24.730;2022-10-31T00:23:12;145599.28;;;16.22;58.53
5877;BME280;2964;42.144;24.730;2022-10-31T00:25:39;145561.47;;;16.07;58.73
5877;BME280;2964;42.144;24.730;2022-10-31T00:28:07;145581.63;;;16.15;58.33
5877;BME280;2964;42.144;24.730;2022-10-31T00:30:37;145546.28;;;16.00;58.38
5877;BME280;2964;42.144;24.730;2022-10-31T00:33:04;145575.34;;;16.12;58.83
5877;BME280;2964;42.144;24.730;2022-10-31T00:35:30;145581.63;;;16.15;58.51
5877;BME280;2964;42.144;24.730;2022-10-31T00:37:57;145604.34;;;16.24;58.16
5877;BME280;2964;42.144;24.730;2022-10-31T00:40:24;145579.13;;;16.14;58.38
5877;BME280;2964;42.144;24.730;2022-10-31T00:42:51;145548.84;;;16.01;58.98
5877;BME280;2964;42.144;24.730;2022-10-31T00:45:17;145629.59;;;16.34;57.88
5877;BME280;2964;42.144;24.730;2022-10-31T00:47:45;145652.28;;;16.44;57.81
5877;BME280;2964;42.144;24.730;2022-10-31T00:50:12;145714.09;;;16.69;56.81
5877;BME280;2964;42.144;24.730;2022-10-31T00:52:38;145692.69;;;16.60;57.09
5877;BME280;2964;42.144;24.730;2022-10-31T00:55:05;145722.94;;;16.72;56.32
5877;BME280;2964;42.144;24.730;2022-10-31T00:57:32;145717.91;;;16.70;56.51
5877;BME280;2964;42.144;24.730;2022-10-31T00:59:59;145746.94;;;16.82;56.17
5877;BME280;2964;42.144;24.730;2022-10-31T01:02:25;145719.16;;;16.71;56.76
5877;BME280;2964;42.144;24.730;2022-10-31T01:04:53;145803.78;;;17.05;55.06
5877;BME280;2964;42.144;24.730;2022-10-31T01:07:20;145799.97;;;17.04;55.00
5877;BME280;2964;42.144;24.730;2022-10-31T01:09:47;145773.47;;;16.93;55.48
5877;BME280;2964;42.144;24.730;2022-10-31T01:12:13;145803.78;;;17.05;55.37
5877;BME280;2964;42.144;24.730;2022-10-31T01:14:42;145818.91;;;17.11;54.82
5877;BME280;2964;42.144;24.730;2022-10-31T01:17:09;145849.22;;;17.24;54.08
5877;BME280;2964;42.144;24.730;2022-10-31T01:19:36;145834.09;;;17.17;54.97
5877;BME280;2964;42.144;24.730;2022-10-31T01:22:04;145841.63;;;17.21;54.42
5877;BME280;2964;42.144;24.730;2022-10-31T01:24:31;145849.22;;;17.24;54.67
5877;BME280;2964;42.144;24.730;2022-10-31T01:26:57;145842.94;;;17.21;54.13
5877;BME280;2964;42.144;24.730;2022-10-31T01:29:24;145772.22;;;16.92;55.08
5877;BME280;2964;42.144;24.730;2022-10-31T01:31:51;145822.72;;;17.13;54.67
5877;BME280;2964;42.144;24.730;2022-10-31T01:34:17;145873.19;;;17.33;53.83
5877;BME280;2964;42.144;24.730;2022-10-31T01:36:45;145864.38;;;17.30;54.34
5877;BME280;2964;42.144;24.730;2022-10-31T01:39:18;145914.91;;;17.50;53.63
5877;BME280;2964;42.144;24.730;2022-10-31T01:41:46;145871.94;;;17.33;53.77
5877;BME280;2964;42.144;24.730;2022-10-31T01:44:48;145849.22;;;17.24;54.41
5877;BME280;2964;42.144;24.730;2022-10-31T01:47:17;145893.44;;;17.42;53.71
5877;BME280;2964;42.144;24.730;2022-10-31T01:49:48;145871.94;;;17.33;53.66
5877;BME280;2964;42.144;24.730;2022-10-31T01:52:19;145869.47;;;17.32;54.38
5877;BME280;2964;42.144;24.730;2022-10-31T01:54:52;145899.72;;;17.44;53.26
5877;BME280;2964;42.144;24.730;2022-10-31T01:57:20;145888.38;;;17.40;53.87
5877;BME280;2964;42.144;24.730;2022-10-31T01:59:49;145773.47;;;16.93;53.78
5877;BME280;2964;42.144;24.730;2022-10-31T02:02:18;145902.28;;;17.45;53.89
5877;BME280;2964;42.144;24.730;2022-10-31T02:04:46;145960.38;;;17.69;53.05
5877;BME280;2964;42.144;24.730;2022-10-31T02:07:16;145913.63;;;17.50;53.11
5877;BME280;2964;42.144;24.730;2022-10-31T02:09:49;145919.97;;;17.52;53.34
5877;BME280;2964;42.144;24.730;2022-10-31T02:12:17;145980.56;;;17.77;52.53
5877;BME280;2964;42.144;24.730;2022-10-31T02:14:45;145943.94;;;17.62;52.38
5877;BME280;2964;42.144;24.730;2022-10-31T02:17:12;145959.06;;;17.68;52.45
5877;BME280;2964;42.144;24.730;2022-10-31T02:19:54;145957.81;;;17.68;52.07
5877;BME280;2964;42.144;24.730;2022-10-31T02:22:26;145950.22;;;17.65;52.24
5877;BME280;2964;42.144;24.730;2022-10-31T02:25:07;145940.13;;;17.61;52.65
5877;BME280;2964;42.144;24.730;2022-10-31T02:27:47;145923.75;;;17.54;51.95
5877;BME280;2964;42.144;24.730;2022-10-31T02:30:20;145976.75;;;17.75;51.68
5877;BME280;2964;42.144;24.730;2022-10-31T02:33:05;145935.09;;;17.59;52.75
5877;BME280;2964;42.144;24.730;2022-10-31T02:35:49;145979.31;;;17.77;52.24
5877;BME280;2964;42.144;24.730;2022-10-31T02:38:28;145999.53;;;17.85;51.79
5877;BME280;2964;42.144;24.730;2022-10-31T02:41:01;145972.97;;;17.74;51.73
5877;BME280;2964;42.144;24.730;2022-10-31T02:43:35;146000.78;;;17.85;51.56
5877;BME280;2964;42.144;24.730;2022-10-31T02:46:08;146013.44;;;17.90;51.46
5877;BME280;2964;42.144;24.730;2022-10-31T02:48:39;146005.88;;;17.87;51.07
5877;BME280;2964;42.144;24.730;2022-10-31T02:51:08;146021.03;;;17.93;51.29
5877;BME280;2964;42.144;24.730;2022-10-31T02:53:37;146077.84;;;18.17;50.90
5877;BME280;2964;42.144;24.730;2022-10-31T02:56:06;146093.03;;;18.23;50.42
5877;BME280;2964;42.144;24.730;2022-10-31T02:58:37;146041.22;;;18.02;51.08
5877;BME280;2964;42.144;24.730;2022-10-31T03:01:26;146042.53;;;18.02;50.66
5877;BME280;2964;42.144;24.730;2022-10-31T03:04:16;146079.16;;;18.17;50.55
5877;BME280;2964;42.144;24.730;2022-10-31T03:06:53;146065.25;;;18.11;50.95
5877;BME280;2964;42.144;24.730;2022-10-31T03:09:24;146018.47;;;17.92;51.18
5877;BME280;2964;42.144;24.730;2022-10-31T03:11:58;146110.75;;;18.30;50.60
5877;BME280;2964;42.144;24.730;2022-10-31T03:14:33;146122.09;;;18.35;49.72
5877;BME280;2964;42.144;24.730;2022-10-31T03:17:05;146071.56;;;18.14;50.65
5877;BME280;2964;42.144;24.730;2022-10-31T03:19:39;146089.25;;;18.21;50.51
5877;BME280;2964;42.144;24.730;2022-10-31T03:22:12;146130.94;;;18.38;50.23
5877;BME280;2964;42.144;24.730;2022-10-31T03:24:41;146089.25;;;18.21;50.35
5877;BME280;2964;42.144;24.730;2022-10-31T03:27:11;146052.63;;;18.06;50.25
5877;BME280;2964;42.144;24.730;2022-10-31T03:29:40;146113.25;;;18.31;50.23
5877;BME280;2964;42.144;24.730;2022-10-31T03:32:10;146124.63;;;18.36;49.93
5877;BME280;2964;42.144;24.730;2022-10-31T03:34:41;146080.41;;;18.18;51.00
5877;BME280;2964;42.144;24.730;2022-10-31T03:37:11;146093.03;;;18.23;50.63
5877;BME280;2964;42.144;24.730;2022-10-31T03:39:41;146113.25;;;18.31;50.38
5877;BME280;2964;42.144;24.730;2022-10-31T03:42:12;146071.56;;;18.14;50.76
5877;BME280;2964;42.144;24.730;2022-10-31T03:44:44;146112.00;;;18.30;50.16
5877;BME280;2964;42.144;24.730;2022-10-31T03:47:12;146103.13;;;18.27;50.17
5877;BME280;2964;42.144;24.730;2022-10-31T03:49:41;146109.44;;;18.29;50.08
5877;BME280;2964;42.144;24.730;2022-10-31T03:52:13;146137.28;;;18.41;49.92
5877;BME280;2964;42.144;24.730;2022-10-31T03:54:44;146071.56;;;18.14;50.56
5877;BME280;2964;42.144;24.730;2022-10-31T03:57:16;146038.72;;;18.01;51.02
5877;BME280;2964;42.144;24.730;2022-10-31T03:59:48;146012.19;;;17.90;51.65
5877;BME280;2964;42.144;24.730;2022-10-31T04:02:21;146047.56;;;18.04;51.12
5877;BME280;2964;42.144;24.730;2022-10-31T04:04:51;146052.63;;;18.06;51.20
5877;BME280;2964;42.144;24.730;2022-10-31T04:07:21;146000.78;;;17.85;52.25
5877;BME280;2964;42.144;24.730;2022-10-31T04:09:51;145962.88;;;17.70;52.60
5877;BME280;2964;42.144;24.730;2022-10-31T04:12:19;145907.31;;;17.47;52.91
5877;BME280;2964;42.144;24.730;2022-10-31T04:14:48;145957.81;;;17.68;52.84
5877;BME280;2964;42.144;24.730;2022-10-31T04:17:18;145879.53;;;17.36;54.25
5877;BME280;2964;42.144;24.730;2022-10-31T04:19:46;145870.69;;;17.32;53.69
5877;BME280;2964;42.144;24.730;2022-10-31T04:22:14;145922.44;;;17.53;53.55
5877;BME280;2964;42.144;24.730;2022-10-31T04:24:41;145871.94;;;17.33;54.24
5877;BME280;2964;42.144;24.730;2022-10-31T04:27:07;145897.22;;;17.43;54.11
5877;BME280;2964;42.144;24.730;2022-10-31T04:29:34;145903.53;;;17.46;53.86
5877;BME280;2964;42.144;24.730;2022-10-31T04:32:01;145841.63;;;17.21;55.27
5877;BME280;2964;42.144;24.730;2022-10-31T04:34:27;145850.47;;;17.24;54.86
5877;BME280;2964;42.144;24.730;2022-10-31T04:36:54;145853.03;;;17.25;54.50
5877;BME280;2964;42.144;24.730;2022-10-31T04:39:22;145869.47;;;17.32;54.40
5877;BME280;2964;42.144;24.730;2022-10-31T04:41:48;145888.38;;;17.40;54.65
5877;BME280;2964;42.144;24.730;2022-10-31T04:44:15;145899.72;;;17.44;54.20
5877;BME280;2964;42.144;24.730;2022-10-31T04:46:43;145897.22;;;17.43;54.24
5877;BME280;2964;42.144;24.730;2022-10-31T04:49:09;145855.53;;;17.26;54.14
5877;BME280;2964;42.144;24.730;2022-10-31T04:51:36;145853.03;;;17.25;54.50
5877;BME280;2964;42.144;24.730;2022-10-31T04:54:03;145849.22;;;17.24;54.19
5877;BME280;2964;42.144;24.730;2022-10-31T04:56:31;145859.31;;;17.28;54.34
5877;BME280;2964;42.144;24.730;2022-10-31T04:58:58;145885.84;;;17.39;54.48
5877;BME280;2964;42.144;24.730;2022-10-31T05:01:24;145884.59;;;17.38;54.78
5877;BME280;2964;42.144;24.730;2022-10-31T05:03:51;145919.97;;;17.52;54.22
5877;BME280;2964;42.144;24.730;2022-10-31T05:06:18;145919.97;;;17.52;53.99
5877;BME280;2964;42.144;24.730;2022-10-31T05:08:44;145877.00;;;17.35;54.39
5877;BME280;2964;42.144;24.730;2022-10-31T05:11:11;145880.78;;;17.36;54.53
5877;BME280;2964;42.144;24.730;2022-10-31T05:13:39;145887.09;;;17.39;54.42
5877;BME280;2964;42.144;24.730;2022-10-31T05:16:06;145829.03;;;17.15;55.03
5877;BME280;2964;42.144;24.730;2022-10-31T05:18:33;145740.59;;;16.79;54.61
5877;BME280;2964;42.144;24.730;2022-10-31T05:21:00;145892.19;;;17.41;54.85
5877;BME280;2964;42.144;24.730;2022-10-31T05:23:26;145913.63;;;17.50;54.35
5877;BME280;2964;42.144;24.730;2022-10-31T05:25:53;145940.13;;;17.61;54.49
5877;BME280;2964;42.144;24.730;2022-10-31T05:28:20;145952.78;;;17.66;54.33
5877;BME280;2964;42.144;24.730;2022-10-31T05:30:49;145960.38;;;17.69;53.94
5877;BME280;2964;42.144;24.730;2022-10-31T05:33:16;145962.88;;;17.70;53.97
5877;BME280;2964;42.144;24.730;2022-10-31T05:35:42;146021.03;;;17.93;53.48
5877;BME280;2964;42.144;24.730;2022-10-31T05:38:09;145986.84;;;17.80;53.20
5877;BME280;2964;42.144;24.730;2022-10-31T05:40:36;145993.19;;;17.82;53.52
5877;BME280;2964;42.144;24.730;2022-10-31T05:43:02;145988.16;;;17.80;53.87
5877;BME280;2964;42.144;24.730;2022-10-31T05:45:29;146031.13;;;17.98;53.55
5877;BME280;2964;42.144;24.730;2022-10-31T05:47:59;146050.06;;;18.05;52.84
5877;BME280;2964;42.144;24.730;2022-10-31T05:50:27;146061.47;;;18.10;52.61
5877;BME280;2964;42.144;24.730;2022-10-31T05:52:55;146096.84;;;18.24;52.19
5877;BME280;2964;42.144;24.730;2022-10-31T05:55:22;146088.00;;;18.21;53.08
5877;BME280;2964;42.144;24.730;2022-10-31T05:57:51;146048.81;;;18.05;53.65
5877;BME280;2964;42.144;24.730;2022-10-31T06:00:18;146058.91;;;18.09;53.62
5877;BME280;2964;42.144;24.730;2022-10-31T06:02:45;146088.00;;;18.21;53.46
5877;BME280;2964;42.144;24.730;2022-10-31T06:05:13;146112.00;;;18.30;53.12
5877;BME280;2964;42.144;24.730;2022-10-31T06:07:40;146086.69;;;18.20;53.22
5877;BME280;2964;42.144;24.730;2022-10-31T06:10:07;146129.69;;;18.38;53.08
5877;BME280;2964;42.144;24.730;2022-10-31T06:12:35;146134.72;;;18.40;53.09
5877;BME280;2964;42.144;24.730;2022-10-31T06:15:04;146154.94;;;18.48;52.99
5877;BME280;2964;42.144;24.730;2022-10-31T06:17:31;146152.44;;;18.47;52.91
5877;BME280;2964;42.144;24.730;2022-10-31T06:19:58;146162.53;;;18.51;53.31
5877;BME280;2964;42.144;24.730;2022-10-31T06:22:26;146129.69;;;18.38;53.73
5877;BME280;2964;42.144;24.730;2022-10-31T06:24:53;146157.47;;;18.49;53.41
5877;BME280;2964;42.144;24.730;2022-10-31T06:27:19;146162.53;;;18.51;52.80
5877;BME280;2964;42.144;24.730;2022-10-31T06:29:47;146197.91;;;18.65;53.22
5877;BME280;2964;42.144;24.730;2022-10-31T06:32:13;146233.31;;;18.80;52.50
5877;BME280;2964;42.144;24.730;2022-10-31T06:34:41;146270.03;;;18.95;52.59
5877;BME280;2964;42.144;24.730;2022-10-31T06:37:09;146319.34;;;19.15;52.11
5877;BME280;2964;42.144;24.730;2022-10-31T06:39:37;146361.06;;;19.32;51.57
5877;BME280;2964;42.144;24.730;2022-10-31T06:42:04;146460.97;;;19.72;50.13
5877;BME280;2964;42.144;24.730;2022-10-31T06:44:31;146525.50;;;19.98;49.24
5877;BME280;2964;42.144;24.730;2022-10-31T06:46:58;146587.50;;;20.23;48.33
5877;BME280;2964;42.144;24.730;2022-10-31T06:49:25;146722.94;;;20.78;47.50
5877;BME280;2964;42.144;24.730;2022-10-31T06:51:52;146778.66;;;21.01;46.88
5877;BME280;2964;42.144;24.730;2022-10-31T06:54:18;146811.56;;;21.14;46.68
5877;BME280;2964;42.144;24.730;2022-10-31T06:56:48;146853.34;;;21.31;46.23
5877;BME280;2964;42.144;24.730;2022-10-31T06:59:15;146828.06;;;21.21;46.69
5877;BME280;2964;42.144;24.730;2022-10-31T07:01:41;146782.47;;;21.02;46.62
5877;BME280;2964;42.144;24.730;2022-10-31T07:04:09;146772.31;;;20.98;46.56
5877;BME280;2964;42.144;24.730;2022-10-31T07:06:35;146816.63;;;21.16;46.45
5877;BME280;2964;42.144;24.730;2022-10-31T07:09:02;146845.75;;;21.28;45.99
5877;BME280;2964;42.144;24.730;2022-10-31T07:11:29;146790.03;;;21.06;46.36
5877;BME280;2964;42.144;24.730;2022-10-31T07:13:57;146797.66;;;21.09;46.50
5877;BME280;2964;42.144;24.730;2022-10-31T07:16:24;146779.94;;;21.01;46.29
5877;BME280;2964;42.144;24.730;2022-10-31T07:18:50;146759.66;;;20.93;46.42
5877;BME280;2964;42.144;24.730;2022-10-31T07:21:17;146783.72;;;21.03;46.54
5877;BME280;2964;42.144;24.730;2022-10-31T07:23:47;146858.41;;;21.33;45.71
5877;BME280;2964;42.144;24.730;2022-10-31T07:26:14;146858.41;;;21.33;45.88
5877;BME280;2964;42.144;24.730;2022-10-31T07:28:40;146855.91;;;21.32;45.33
5877;BME280;2964;42.144;24.730;2022-10-31T07:31:08;146862.22;;;21.35;45.70
5877;BME280;2964;42.144;24.730;2022-10-31T07:33:35;146873.63;;;21.39;45.20
5877;BME280;2964;42.144;24.730;2022-10-31T07:36:02;146892.66;;;21.47;45.81
5877;BME280;2964;42.144;24.730;2022-10-31T07:38:29;146890.13;;;21.46;44.99
5877;BME280;2964;42.144;24.730;2022-10-31T07:40:55;146929.41;;;21.62;45.06
5877;BME280;2964;42.144;24.730;2022-10-31T07:43:22;146973.75;;;21.80;44.96
5877;BME280;2964;42.144;24.730;2022-10-31T07:45:50;146940.78;;;21.67;45.15
5877;BME280;2964;42.144;24.730;2022-10-31T07:48:19;146939.53;;;21.66;45.35
5877;BME280;2964;42.144;24.730;2022-10-31T07:50:46;146942.06;;;21.67;44.96
5877;BME280;2964;42.144;24.730;2022-10-31T07:53:13;146882.47;;;21.43;45.89
5877;BME280;2964;42.144;24.730;2022-10-31T07:55:41;146902.78;;;21.51;45.71
5877;BME280;2964;42.144;24.730;2022-10-31T07:58:09;146975.00;;;21.81;45.10
5877;BME280;2964;42.144;24.730;2022-10-31T08:00:38;147007.91;;;21.94;45.06
5877;BME280;2964;42.144;24.730;2022-10-31T08:03:06;147019.34;;;21.98;44.81
5877;BME280;2964;42.144;24.730;2022-10-31T08:05:35;147061.13;;;22.15;44.43
5877;BME280;2964;42.144;24.730;2022-10-31T08:08:02;147063.66;;;22.16;44.84
5877;BME280;2964;42.144;24.730;2022-10-31T08:10:29;147083.94;;;22.25;44.31
5877;BME280;2964;42.144;24.730;2022-10-31T08:12:57;147153.66;;;22.53;43.84
5877;BME280;2964;42.144;24.730;2022-10-31T08:15:24;147192.97;;;22.69;43.39
5877;BME280;2964;42.144;24.730;2022-10-31T08:17:51;147224.66;;;22.82;42.91
5877;BME280;2964;42.144;24.730;2022-10-31T08:20:17;147224.66;;;22.82;43.31
5877;BME280;2964;42.144;24.730;2022-10-31T08:22:54;147271.56;;;23.01;42.15
5877;BME280;2964;42.144;24.730;2022-10-31T08:25:20;147230.97;;;22.84;42.60
5877;BME280;2964;42.144;24.730;2022-10-31T08:27:49;147271.56;;;23.01;42.36
5877;BME280;2964;42.144;24.730;2022-10-31T08:30:16;147464.31;;;23.79;41.34
5877;BME280;2964;42.144;24.730;2022-10-31T08:32:43;147995.09;;;25.93;37.07
5877;BME280;2964;42.144;24.730;2022-10-31T08:35:09;148037.00;;;26.10;35.40
5877;BME280;2964;42.144;24.730;2022-10-31T08:37:36;147944.22;;;25.73;36.42
5877;BME280;2964;42.144;24.730;2022-10-31T08:40:05;147836.31;;;25.29;37.35
5877;BME280;2964;42.144;24.730;2022-10-31T08:42:32;147837.56;;;25.30;36.56
5877;BME280;2964;42.144;24.730;2022-10-31T08:44:59;148068.78;;;26.23;36.01
5877;BME280;2964;42.144;24.730;2022-10-31T08:47:25;148422.19;;;27.66;32.15
5877;BME280;2964;42.144;24.730;2022-10-31T08:49:53;148501.06;;;27.98;32.14
5877;BME280;2964;42.144;24.730;2022-10-31T08:52:22;148559.56;;;28.21;32.15
5877;BME280;2964;42.144;24.730;2022-10-31T08:54:49;149105.84;;;30.42;29.20
5877;BME280;2964;42.144;24.730;2022-10-31T08:57:17;149369.66;;;31.48;27.55
5877;BME280;2964;42.144;24.730;2022-10-31T08:59:44;149413.00;;;31.65;26.88
5877;BME280;2964;42.144;24.730;2022-10-31T09:02:10;149683.41;;;32.74;25.41
5877;BME280;2964;42.144;24.730;2022-10-31T09:04:37;149714.00;;;32.86;25.04
5877;BME280;2964;42.144;24.730;2022-10-31T09:07:03;149821.22;;;33.30;25.21
5877;BME280;2964;42.144;24.730;2022-10-31T09:09:30;149497.13;;;31.99;25.83
5877;BME280;2964;42.144;24.730;2022-10-31T09:11:57;149679.56;;;32.73;25.86
5877;BME280;2964;42.144;24.730;2022-10-31T09:14:25;149925.91;;;33.72;24.65
5877;BME280;2964;42.144;24.730;2022-10-31T09:16:52;149835.25;;;33.35;25.02
5877;BME280;2964;42.144;24.730;2022-10-31T09:19:18;150163.34;;;34.67;24.16
5877;BME280;2964;42.144;24.730;2022-10-31T09:21:45;150316.69;;;35.29;22.74
5877;BME280;2964;42.144;24.730;2022-10-31T09:24:12;149571.13;;;32.29;25.69
5877;BME280;2964;42.144;24.730;2022-10-31T09:26:38;149678.31;;;32.72;24.99
5877;BME280;2964;42.144;24.730;2022-10-31T09:29:05;150297.50;;;35.21;23.23
5877;BME280;2964;42.144;24.730;2022-10-31T09:31:36;150687.34;;;36.78;20.71
5877;BME280;2964;42.144;24.730;2022-10-31T09:34:02;150148.03;;;34.61;22.35
5877;BME280;2964;42.144;24.730;2022-10-31T09:36:29;150495.59;;;36.01;21.37
5877;BME280;2964;42.144;24.730;2022-10-31T09:38:56;151012.25;;;38.08;20.32
5877;BME280;2964;42.144;24.730;2022-10-31T09:41:27;151320.75;;;39.32;18.63
5877;BME280;2964;42.144;24.730;2022-10-31T09:44:03;151130.06;;;38.55;19.34
5877;BME280;2964;42.144;24.730;2022-10-31T09:46:42;151032.78;;;38.16;19.02
5877;BME280;2964;42.144;24.730;2022-10-31T09:49:34;150240.00;;;34.98;21.77
5877;BME280;2964;42.144;24.730;2022-10-31T09:52:11;150355.00;;;35.44;21.79
5877;BME280;2964;42.144;24.730;2022-10-31T09:54:52;150150.56;;;34.62;22.97
5877;BME280;2964;42.144;24.730;2022-10-31T09:57:24;149604.25;;;32.42;24.66
5877;BME280;2964;42.144;24.730;2022-10-31T09:59:52;149124.94;;;30.49;26.73
5877;BME280;2964;42.144;24.730;2022-10-31T10:02:25;148614.28;;;28.43;29.58
5877;BME280;2964;42.144;24.730;2022-10-31T10:04:57;148376.41;;;27.47;30.97
5877;BME280;2964;42.144;24.730;2022-10-31T10:07:30;148259.38;;;27.00;32.22
5877;BME280;2964;42.144;24.730;2022-10-31T10:10:04;148063.69;;;26.21;33.39
5877;BME280;2964;42.144;24.730;2022-10-31T10:12:49;147969.63;;;25.83;34.14
5877;BME280;2964;42.144;24.730;2022-10-31T10:15:34;147935.31;;;25.69;33.65
5877;BME280;2964;42.144;24.730;2022-10-31T10:18:15;147862.97;;;25.40;35.04
5877;BME280;2964;42.144;24.730;2022-10-31T10:20:56;147826.16;;;25.25;35.11
5877;BME280;2964;42.144;24.730;2022-10-31T10:23:35;147855.34;;;25.37;35.65
5877;BME280;2964;42.144;24.730;2022-10-31T10:26:13;147818.47;;;25.22;35.87
5877;BME280;2964;42.144;24.730;2022-10-31T10:28:44;147695.34;;;24.72;36.07
5877;BME280;2964;42.144;24.730;2022-10-31T10:31:14;147728.34;;;24.85;36.62
5877;BME280;2964;42.144;24.730;2022-10-31T10:33:54;147720.72;;;24.82;36.68
5877;BME280;2964;42.144;24.730;2022-10-31T10:36:27;147652.19;;;24.55;36.90
5877;BME280;2964;42.144;24.730;2022-10-31T10:38:59;147642.00;;;24.51;37.31
5877;BME280;2964;42.144;24.730;2022-10-31T10:41:29;147656.00;;;24.56;37.44
5877;BME280;2964;42.144;24.730;2022-10-31T10:43:57;147624.22;;;24.43;38.16
5877;BME280;2964;42.144;24.730;2022-10-31T10:46:27;147635.66;;;24.48;38.45
5877;BME280;2964;42.144;24.730;2022-10-31T10:49:19;147588.72;;;24.29;41.66
5877;BME280;2964;42.144;24.730;2022-10-31T10:51:54;147570.97;;;24.22;48.15
5877;BME280;2964;42.144;24.730;2022-10-31T10:54:39;147586.16;;;24.28;41.39
5877;BME280;2964;42.144;24.730;2022-10-31T10:57:18;147568.41;;;24.21;38.16
5877;BME280;2964;42.144;24.730;2022-10-31T10:59:47;147570.97;;;24.22;38.13
5877;BME280;2964;42.144;24.730;2022-10-31T11:02:17;147572.22;;;24.22;38.44
5877;BME280;2964;42.144;24.730;2022-10-31T11:04:48;147555.72;;;24.16;38.75
5877;BME280;2964;42.144;24.730;2022-10-31T11:07:16;147583.59;;;24.27;38.32
5877;BME280;2964;42.144;24.730;2022-10-31T11:09:43;147669.94;;;24.62;37.50
5877;BME280;2964;42.144;24.730;2022-10-31T11:12:15;147609.00;;;24.37;38.55
5877;BME280;2964;42.144;24.730;2022-10-31T11:14:45;147710.56;;;24.78;37.52
5877;BME280;2964;42.144;24.730;2022-10-31T11:17:20;147725.84;;;24.84;38.23
5877;BME280;2964;42.144;24.730;2022-10-31T11:20:01;147716.94;;;24.81;36.28
5877;BME280;2964;42.144;24.730;2022-10-31T11:22:28;147742.31;;;24.91;36.89
5877;BME280;2964;42.144;24.730;2022-10-31T11:24:55;147758.81;;;24.98;36.42
5877;BME280;2964;42.144;24.730;2022-10-31T11:27:24;147741.03;;;24.91;35.75
5877;BME280;2964;42.144;24.730;2022-10-31T11:29:51;147718.19;;;24.81;35.85
5877;BME280;2964;42.144;24.730;2022-10-31T11:32:21;147755.00;;;24.96;36.52
5877;BME280;2964;42.144;24.730;2022-10-31T11:34:51;147795.63;;;25.13;36.43
5877;BME280;2964;42.144;24.730;2022-10-31T11:37:23;147812.09;;;25.19;36.47
5877;BME280;2964;42.144;24.730;2022-10-31T11:39:52;147814.66;;;25.20;35.85
5877;BME280;2964;42.144;24.730;2022-10-31T11:42:22;147857.91;;;25.38;35.29
5877;BME280;2964;42.144;24.730;2022-10-31T11:44:51;147882.00;;;25.48;35.88
5877;BME280;2964;42.144;24.730;2022-10-31T11:47:23;147903.63;;;25.56;35.84
5877;BME280;2964;42.144;24.730;2022-10-31T11:49:52;147913.75;;;25.60;35.94
5877;BME280;2964;42.144;24.730;2022-10-31T11:52:23;147832.50;;;25.28;35.81
5877;BME280;2964;42.144;24.730;2022-10-31T11:54:53;147826.16;;;25.25;35.76
5877;BME280;2964;42.144;24.730;2022-10-31T11:57:27;147796.88;;;25.13;36.30
5877;BME280;2964;42.144;24.730;2022-10-31T11:59:56;147786.75;;;25.09;36.83
5877;BME280;2964;42.144;24.730;2022-10-31T12:02:24;147775.28;;;25.04;36.82
5877;BME280;2964;42.144;24.730;2022-10-31T12:04:59;147748.69;;;24.94;36.95
5877;BME280;2964;42.144;24.730;2022-10-31T12:07:28;147735.97;;;24.89;37.52
5877;BME280;2964;42.144;24.730;2022-10-31T12:09:55;147730.91;;;24.87;37.39
5877;BME280;2964;42.144;24.730;2022-10-31T12:12:44;147691.53;;;24.71;37.45
5877;BME280;2964;42.144;24.730;2022-10-31T12:15:25;147710.56;;;24.78;37.67
5877;BME280;2964;42.144;24.730;2022-10-31T12:18:02;147710.56;;;24.78;37.38
5877;BME280;2964;42.144;24.730;2022-10-31T12:20:40;147729.59;;;24.86;36.87
5877;BME280;2964;42.144;24.730;2022-10-31T12:23:18;147751.19;;;24.95;37.59
5877;BME280;2964;42.144;24.730;2022-10-31T12:25:51;147777.84;;;25.05;37.40
5877;BME280;2964;42.144;24.730;2022-10-31T12:28:35;147775.28;;;25.04;36.96
5877;BME280;2964;42.144;24.730;2022-10-31T12:31:17;147788.00;;;25.10;37.24
5877;BME280;2964;42.144;24.730;2022-10-31T12:33:56;147796.88;;;25.13;37.83
5877;BME280;2964;42.144;24.730;2022-10-31T12:36:39;147789.25;;;25.10;37.21
5877;BME280;2964;42.144;24.730;2022-10-31T12:39:31;147801.97;;;25.15;37.62
5877;BME280;2964;42.144;24.730;2022-10-31T12:42:07;147807.03;;;25.17;37.42
5877;BME280;2964;42.144;24.730;2022-10-31T12:44:55;147803.25;;;25.16;36.69
5877;BME280;2964;42.144;24.730;2022-10-31T12:47:41;147821.00;;;25.23;36.20
5877;BME280;2964;42.144;24.730;2022-10-31T12:50:20;147831.25;;;25.27;36.35
5877;BME280;2964;42.144;24.730;2022-10-31T12:53:03;147861.66;;;25.39;36.33
5877;BME280;2964;42.144;24.730;2022-10-31T12:55:41;147855.34;;;25.37;36.10
5877;BME280;2964;42.144;24.730;2022-10-31T12:58:17;147859.16;;;25.38;35.89
5877;BME280;2964;42.144;24.730;2022-10-31T13:00:51;147874.38;;;25.45;35.90
5877;BME280;2964;42.144;24.730;2022-10-31T13:03:28;147899.78;;;25.55;35.81
5877;BME280;2964;42.144;24.730;2022-10-31T13:06:03;147894.72;;;25.53;35.92
5877;BME280;2964;42.144;24.730;2022-10-31T13:08:38;147884.53;;;25.49;36.31
5877;BME280;2964;42.144;24.730;2022-10-31T13:11:11;147847.72;;;25.34;35.66
5877;BME280;2964;42.144;24.730;2022-10-31T13:13:42;147865.50;;;25.41;35.90
5877;BME280;2964;42.144;24.730;2022-10-31T13:16:15;147833.75;;;25.28;36.60